Ellerslie, Maryland
Current Conditions -  °F | °C
As of 5:20 PM on Saturday 25 Oct 2014 (Local Time) from KCBE Reporting Station
Clear Clear  
Wind Chill: 70°   Ceiling: Unl
Heat Index: 70°   Visibility: 10mi
Dew Point: 45°   Wind: 7mph
Humidity: 40%   Direction: 240°WSW
Pressure: 29.8"   Gusts: 18mph
Location:  39.72°N, 78.77°W
Report Text: KCBE 252120Z AUTO 24006G16KT 10SM CLR 21/07 A2980 RMK AO1
Loading
Personal Weather Stations






























Interactive Weather Map
Tropical Storm Tracking
New forecast layout! Learn more

10-Day Weather Forecast

Advertisements
Track Severe Weather on mobile